sensor_id;sensor_type;location;lat;lon;timestamp;P1;durP1;ratioP1;P2;durP2;ratioP2
20318;SDS011;10317;47.254;11.314;2023-04-01T00:00:55;4.28;;;3.15;;
20318;SDS011;10317;47.254;11.314;2023-04-01T00:03:23;3.97;;;3.67;;
20318;SDS011;10317;47.254;11.314;2023-04-01T00:05:49;4.45;;;4.05;;
20318;SDS011;10317;47.254;11.314;2023-04-01T00:08:15;4.07;;;3.13;;
20318;SDS011;10317;47.254;11.314;2023-04-01T00:10:41;3.38;;;3.15;;
20318;SDS011;10317;47.254;11.314;2023-04-01T00:13:07;3.53;;;3.28;;
20318;SDS011;10317;47.254;11.314;2023-04-01T00:15:33;3.83;;;3.53;;
20318;SDS011;10317;47.254;11.314;2023-04-01T00:17:59;3.40;;;3.13;;
20318;SDS011;10317;47.254;11.314;2023-04-01T00:20:26;3.35;;;3.15;;
20318;SDS011;10317;47.254;11.314;2023-04-01T00:22:52;5.10;;;3.85;;
20318;SDS011;10317;47.254;11.314;2023-04-01T00:25:17;3.55;;;3.25;;
20318;SDS011;10317;47.254;11.314;2023-04-01T00:27:43;3.53;;;3.30;;
20318;SDS011;10317;47.254;11.314;2023-04-01T00:30:09;3.22;;;3.00;;
20318;SDS011;10317;47.254;11.314;2023-04-01T00:32:36;3.75;;;3.38;;
20318;SDS011;10317;47.254;11.314;2023-04-01T00:35:02;3.10;;;2.83;;
20318;SDS011;10317;47.254;11.314;2023-04-01T00:37:28;2.75;;;2.30;;
20318;SDS011;10317;47.254;11.314;2023-04-01T00:39:54;2.67;;;2.47;;
20318;SDS011;10317;47.254;11.314;2023-04-01T00:42:20;2.42;;;2.33;;
20318;SDS011;10317;47.254;11.314;2023-04-01T00:44:52;2.80;;;2.60;;
20318;SDS011;10317;47.254;11.314;2023-04-01T00:47:19;4.45;;;3.63;;
20318;SDS011;10317;47.254;11.314;2023-04-01T00:49:50;4.75;;;3.30;;
20318;SDS011;10317;47.254;11.314;2023-04-01T00:52:20;4.03;;;3.13;;
20318;SDS011;10317;47.254;11.314;2023-04-01T00:54:49;3.53;;;3.15;;
20318;SDS011;10317;47.254;11.314;2023-04-01T00:57:19;3.78;;;3.40;;
20318;SDS011;10317;47.254;11.314;2023-04-01T00:59:50;3.05;;;2.85;;
20318;SDS011;10317;47.254;11.314;2023-04-01T01:02:19;4.05;;;3.65;;
20318;SDS011;10317;47.254;11.314;2023-04-01T01:04:45;3.85;;;3.45;;
20318;SDS011;10317;47.254;11.314;2023-04-01T01:15:44;3.95;;;2.90;;
20318;SDS011;10317;47.254;11.314;2023-04-01T01:18:19;3.38;;;3.05;;
20318;SDS011;10317;47.254;11.314;2023-04-01T01:34:51;3.50;;;3.20;;
20318;SDS011;10317;47.254;11.314;2023-04-01T01:37:39;3.10;;;2.90;;
20318;SDS011;10317;47.254;11.314;2023-04-01T01:40:07;3.33;;;3.05;;
20318;SDS011;10317;47.254;11.314;2023-04-01T01:42:37;4.40;;;2.90;;
20318;SDS011;10317;47.254;11.314;2023-04-01T01:45:06;3.53;;;3.28;;
20318;SDS011;10317;47.254;11.314;2023-04-01T01:47:33;3.00;;;2.80;;
20318;SDS011;10317;47.254;11.314;2023-04-01T01:50:00;3.15;;;2.67;;
20318;SDS011;10317;47.254;11.314;2023-04-01T01:52:28;3.72;;;3.40;;
20318;SDS011;10317;47.254;11.314;2023-04-01T01:54:54;3.90;;;3.15;;
20318;SDS011;10317;47.254;11.314;2023-04-01T01:57:26;3.28;;;3.08;;
20318;SDS011;10317;47.254;11.314;2023-04-01T02:00:04;4.10;;;2.80;;
20318;SDS011;10317;47.254;11.314;2023-04-01T02:02:40;3.58;;;3.28;;
20318;SDS011;10317;47.254;11.314;2023-04-01T02:05:08;3.38;;;3.08;;
20318;SDS011;10317;47.254;11.314;2023-04-01T02:07:40;3.05;;;2.63;;
20318;SDS011;10317;47.254;11.314;2023-04-01T02:10:10;3.38;;;2.63;;
20318;SDS011;10317;47.254;11.314;2023-04-01T02:12:36;3.08;;;2.88;;
20318;SDS011;10317;47.254;11.314;2023-04-01T02:15:06;3.13;;;2.85;;
20318;SDS011;10317;47.254;11.314;2023-04-01T02:17:35;3.10;;;2.90;;
20318;SDS011;10317;47.254;11.314;2023-04-01T02:20:07;3.63;;;2.85;;
20318;SDS011;10317;47.254;11.314;2023-04-01T02:22:39;3.03;;;2.50;;
20318;SDS011;10317;47.254;11.314;2023-04-01T02:25:10;3.97;;;2.80;;
20318;SDS011;10317;47.254;11.314;2023-04-01T02:27:40;2.80;;;2.60;;
20318;SDS011;10317;47.254;11.314;2023-04-01T02:30:09;3.35;;;3.03;;
20318;SDS011;10317;47.254;11.314;2023-04-01T02:32:37;2.47;;;2.28;;
20318;SDS011;10317;47.254;11.314;2023-04-01T02:35:08;5.50;;;3.60;;
20318;SDS011;10317;47.254;11.314;2023-04-01T02:37:36;2.78;;;2.58;;
20318;SDS011;10317;47.254;11.314;2023-04-01T02:40:04;3.55;;;3.25;;
20318;SDS011;10317;47.254;11.314;2023-04-01T02:42:34;2.72;;;2.53;;
20318;SDS011;10317;47.254;11.314;2023-04-01T02:45:00;2.75;;;2.53;;
20318;SDS011;10317;47.254;11.314;2023-04-01T02:47:26;2.95;;;2.63;;
20318;SDS011;10317;47.254;11.314;2023-04-01T02:49:52;2.55;;;2.45;;
20318;SDS011;10317;47.254;11.314;2023-04-01T02:52:27;2.63;;;2.42;;
20318;SDS011;10317;47.254;11.314;2023-04-01T02:54:54;2.63;;;2.47;;
20318;SDS011;10317;47.254;11.314;2023-04-01T02:57:20;4.05;;;3.20;;
20318;SDS011;10317;47.254;11.314;2023-04-01T02:59:45;2.83;;;2.60;;
20318;SDS011;10317;47.254;11.314;2023-04-01T03:02:12;2.50;;;2.40;;
20318;SDS011;10317;47.254;11.314;2023-04-01T03:04:37;3.38;;;2.80;;
20318;SDS011;10317;47.254;11.314;2023-04-01T03:07:03;2.90;;;2.70;;
20318;SDS011;10317;47.254;11.314;2023-04-01T03:09:29;5.60;;;2.58;;
20318;SDS011;10317;47.254;11.314;2023-04-01T03:11:55;2.95;;;2.38;;
20318;SDS011;10317;47.254;11.314;2023-04-01T03:14:20;3.40;;;2.60;;
20318;SDS011;10317;47.254;11.314;2023-04-01T03:16:46;3.13;;;2.85;;
20318;SDS011;10317;47.254;11.314;2023-04-01T03:19:12;2.65;;;2.33;;
20318;SDS011;10317;47.254;11.314;2023-04-01T03:21:38;2.65;;;2.38;;
20318;SDS011;10317;47.254;11.314;2023-04-01T03:24:03;3.40;;;2.20;;
20318;SDS011;10317;47.254;11.314;2023-04-01T03:26:30;3.78;;;3.30;;
20318;SDS011;10317;47.254;11.314;2023-04-01T03:28:55;3.55;;;2.83;;
20318;SDS011;10317;47.254;11.314;2023-04-01T03:31:21;5.10;;;3.33;;
20318;SDS011;10317;47.254;11.314;2023-04-01T03:33:47;3.63;;;3.30;;
20318;SDS011;10317;47.254;11.314;2023-04-01T03:36:13;3.05;;;2.85;;
20318;SDS011;10317;47.254;11.314;2023-04-01T03:38:39;5.15;;;2.45;;
20318;SDS011;10317;47.254;11.314;2023-04-01T03:41:06;2.63;;;2.42;;
20318;SDS011;10317;47.254;11.314;2023-04-01T03:43:32;2.88;;;2.67;;
20318;SDS011;10317;47.254;11.314;2023-04-01T03:45:58;2.08;;;1.98;;
20318;SDS011;10317;47.254;11.314;2023-04-01T03:48:24;5.25;;;2.90;;
20318;SDS011;10317;47.254;11.314;2023-04-01T03:50:51;3.38;;;2.75;;
20318;SDS011;10317;47.254;11.314;2023-04-01T03:53:17;3.53;;;3.22;;
20318;SDS011;10317;47.254;11.314;2023-04-01T03:55:42;3.97;;;3.60;;
20318;SDS011;10317;47.254;11.314;2023-04-01T03:58:08;3.83;;;3.10;;
20318;SDS011;10317;47.254;11.314;2023-04-01T04:00:34;2.75;;;2.55;;
20318;SDS011;10317;47.254;11.314;2023-04-01T04:03:00;2.92;;;2.72;;
20318;SDS011;10317;47.254;11.314;2023-04-01T04:05:26;2.60;;;2.40;;
20318;SDS011;10317;47.254;11.314;2023-04-01T04:07:52;3.20;;;2.90;;
20318;SDS011;10317;47.254;11.314;2023-04-01T04:10:19;2.88;;;2.50;;
20318;SDS011;10317;47.254;11.314;2023-04-01T04:12:45;2.35;;;2.15;;
20318;SDS011;10317;47.254;11.314;2023-04-01T04:15:11;2.42;;;2.22;;
20318;SDS011;10317;47.254;11.314;2023-04-01T04:17:40;2.40;;;2.30;;
20318;SDS011;10317;47.254;11.314;2023-04-01T04:20:06;3.60;;;2.28;;
20318;SDS011;10317;47.254;11.314;2023-04-01T04:22:33;5.05;;;2.40;;
20318;SDS011;10317;47.254;11.314;2023-04-01T04:24:58;2.25;;;2.08;;
20318;SDS011;10317;47.254;11.314;2023-04-01T04:27:24;2.60;;;2.40;;
20318;SDS011;10317;47.254;11.314;2023-04-01T04:29:50;2.65;;;2.45;;
20318;SDS011;10317;47.254;11.314;2023-04-01T04:32:16;2.22;;;2.03;;
20318;SDS011;10317;47.254;11.314;2023-04-01T04:34:41;2.30;;;2.13;;
20318;SDS011;10317;47.254;11.314;2023-04-01T04:37:07;4.53;;;3.63;;
20318;SDS011;10317;47.254;11.314;2023-04-01T04:39:32;2.70;;;2.40;;
20318;SDS011;10317;47.254;11.314;2023-04-01T04:41:58;3.90;;;2.80;;
20318;SDS011;10317;47.254;11.314;2023-04-01T04:44:24;2.30;;;2.20;;
20318;SDS011;10317;47.254;11.314;2023-04-01T04:46:49;3.40;;;1.90;;
20318;SDS011;10317;47.254;11.314;2023-04-01T04:49:15;3.17;;;2.50;;
20318;SDS011;10317;47.254;11.314;2023-04-01T04:51:41;2.45;;;2.35;;
20318;SDS011;10317;47.254;11.314;2023-04-01T04:54:06;4.15;;;2.30;;
20318;SDS011;10317;47.254;11.314;2023-04-01T04:56:32;3.22;;;2.95;;
20318;SDS011;10317;47.254;11.314;2023-04-01T04:58:58;3.05;;;2.60;;
20318;SDS011;10317;47.254;11.314;2023-04-01T05:01:24;2.42;;;2.33;;
20318;SDS011;10317;47.254;11.314;2023-04-01T05:03:50;2.58;;;2.40;;
20318;SDS011;10317;47.254;11.314;2023-04-01T05:06:16;2.33;;;2.20;;
20318;SDS011;10317;47.254;11.314;2023-04-01T05:08:43;2.50;;;2.30;;
20318;SDS011;10317;47.254;11.314;2023-04-01T05:11:11;2.42;;;2.33;;
20318;SDS011;10317;47.254;11.314;2023-04-01T05:13:39;2.50;;;2.22;;
20318;SDS011;10317;47.254;11.314;2023-04-01T05:16:15;4.60;;;3.00;;
20318;SDS011;10317;47.254;11.314;2023-04-01T05:18:43;4.43;;;4.03;;
20318;SDS011;10317;47.254;11.314;2023-04-01T05:21:10;4.13;;;2.97;;
20318;SDS011;10317;47.254;11.314;2023-04-01T05:23:37;3.25;;;2.53;;
20318;SDS011;10317;47.254;11.314;2023-04-01T05:26:13;3.05;;;2.60;;
20318;SDS011;10317;47.254;11.314;2023-04-01T05:28:39;3.80;;;3.03;;
20318;SDS011;10317;47.254;11.314;2023-04-01T05:31:05;3.03;;;2.78;;
20318;SDS011;10317;47.254;11.314;2023-04-01T05:33:32;3.28;;;2.97;;
20318;SDS011;10317;47.254;11.314;2023-04-01T05:36:19;3.25;;;2.88;;
20318;SDS011;10317;47.254;11.314;2023-04-01T05:38:44;2.95;;;2.75;;
20318;SDS011;10317;47.254;11.314;2023-04-01T05:41:11;2.85;;;2.65;;
20318;SDS011;10317;47.254;11.314;2023-04-01T05:43:37;3.20;;;2.83;;
20318;SDS011;10317;47.254;11.314;2023-04-01T05:46:03;3.60;;;3.30;;
20318;SDS011;10317;47.254;11.314;2023-04-01T05:48:29;2.97;;;2.75;;
20318;SDS011;10317;47.254;11.314;2023-04-01T05:50:55;2.72;;;2.53;;
20318;SDS011;10317;47.254;11.314;2023-04-01T05:53:20;2.95;;;2.53;;
20318;SDS011;10317;47.254;11.314;2023-04-01T05:55:47;2.50;;;2.40;;
20318;SDS011;10317;47.254;11.314;2023-04-01T05:58:12;2.83;;;2.63;;
20318;SDS011;10317;47.254;11.314;2023-04-01T06:00:38;2.92;;;2.60;;
20318;SDS011;10317;47.254;11.314;2023-04-01T06:03:04;2.97;;;2.30;;
20318;SDS011;10317;47.254;11.314;2023-04-01T06:05:30;3.72;;;3.45;;
20318;SDS011;10317;47.254;11.314;2023-04-01T06:08:08;3.67;;;3.17;;
20318;SDS011;10317;47.254;11.314;2023-04-01T06:27:12;3.72;;;3.40;;
20318;SDS011;10317;47.254;11.314;2023-04-01T06:35:26;4.43;;;3.42;;
20318;SDS011;10317;47.254;11.314;2023-04-01T06:44:07;6.82;;;3.33;;
20318;SDS011;10317;47.254;11.314;2023-04-01T06:47:01;6.32;;;3.50;;
20318;SDS011;10317;47.254;11.314;2023-04-01T06:49:44;3.83;;;3.38;;
20318;SDS011;10317;47.254;11.314;2023-04-01T06:52:41;3.33;;;3.00;;
20318;SDS011;10317;47.254;11.314;2023-04-01T06:58:03;5.50;;;3.92;;
20318;SDS011;10317;47.254;11.314;2023-04-01T07:00:35;8.65;;;3.95;;
20318;SDS011;10317;47.254;11.314;2023-04-01T07:05:48;3.00;;;2.78;;
20318;SDS011;10317;47.254;11.314;2023-04-01T07:08:20;6.25;;;3.13;;
20318;SDS011;10317;47.254;11.314;2023-04-01T07:10:53;4.57;;;2.78;;
20318;SDS011;10317;47.254;11.314;2023-04-01T07:13:27;3.45;;;3.15;;
20318;SDS011;10317;47.254;11.314;2023-04-01T07:16:06;4.43;;;3.53;;
20318;SDS011;10317;47.254;11.314;2023-04-01T07:28:26;5.55;;;3.53;;
20318;SDS011;10317;47.254;11.314;2023-04-01T07:37:10;4.25;;;3.70;;
20318;SDS011;10317;47.254;11.314;2023-04-01T07:39:48;3.38;;;3.15;;
20318;SDS011;10317;47.254;11.314;2023-04-01T07:47:58;5.15;;;3.53;;
20318;SDS011;10317;47.254;11.314;2023-04-01T07:50:34;6.60;;;2.92;;
20318;SDS011;10317;47.254;11.314;2023-04-01T08:07:22;3.50;;;3.20;;
20318;SDS011;10317;47.254;11.314;2023-04-01T08:16:26;3.10;;;1.80;;
20318;SDS011;10317;47.254;11.314;2023-04-01T08:25:09;5.00;;;4.03;;
20318;SDS011;10317;47.254;11.314;2023-04-01T08:27:46;4.85;;;2.95;;
20318;SDS011;10317;47.254;11.314;2023-04-01T08:32:54;2.40;;;2.30;;
20318;SDS011;10317;47.254;11.314;2023-04-01T08:35:40;2.63;;;2.45;;
20318;SDS011;10317;47.254;11.314;2023-04-01T08:56:40;2.75;;;2.10;;
20318;SDS011;10317;47.254;11.314;2023-04-01T09:22:09;0.60;;;0.60;;
20318;SDS011;10317;47.254;11.314;2023-04-01T09:33:53;0.60;;;0.60;;
20318;SDS011;10317;47.254;11.314;2023-04-01T09:50:57;0.40;;;0.40;;
20318;SDS011;10317;47.254;11.314;2023-04-01T10:22:44;0.32;;;0.32;;
20318;SDS011;10317;47.254;11.314;2023-04-01T11:02:38;0.50;;;0.50;;
20318;SDS011;10317;47.254;11.314;2023-04-01T11:26:08;0.50;;;0.50;;
20318;SDS011;10317;47.254;11.314;2023-04-01T12:06:41;0.40;;;0.40;;
20318;SDS011;10317;47.254;11.314;2023-04-01T12:09:16;1.00;;;0.32;;
20318;SDS011;10317;47.254;11.314;2023-04-01T12:14:59;0.40;;;0.40;;
20318;SDS011;10317;47.254;11.314;2023-04-01T12:20:57;0.30;;;0.30;;
20318;SDS011;10317;47.254;11.314;2023-04-01T12:23:33;0.30;;;0.30;;
20318;SDS011;10317;47.254;11.314;2023-04-01T12:40:06;0.40;;;0.40;;
20318;SDS011;10317;47.254;11.314;2023-04-01T12:46:07;0.30;;;0.30;;
20318;SDS011;10317;47.254;11.314;2023-04-01T12:48:45;0.50;;;0.50;;
20318;SDS011;10317;47.254;11.314;2023-04-01T13:05:55;0.40;;;0.40;;
20318;SDS011;10317;47.254;11.314;2023-04-01T13:11:20;0.40;;;0.40;;
20318;SDS011;10317;47.254;11.314;2023-04-01T13:29:46;0.32;;;0.32;;
20318;SDS011;10317;47.254;11.314;2023-04-01T13:45:42;0.43;;;0.43;;
20318;SDS011;10317;47.254;11.314;2023-04-01T13:59:32;0.38;;;0.38;;
20318;SDS011;10317;47.254;11.314;2023-04-01T14:02:19;0.30;;;0.30;;
20318;SDS011;10317;47.254;11.314;2023-04-01T14:10:52;0.40;;;0.40;;
20318;SDS011;10317;47.254;11.314;2023-04-01T14:13:10;0.43;;;0.43;;
20318;SDS011;10317;47.254;11.314;2023-04-01T14:15:50;0.47;;;0.47;;
20318;SDS011;10317;47.254;11.314;2023-04-01T14:18:54;0.40;;;0.40;;
20318;SDS011;10317;47.254;11.314;2023-04-01T14:24:18;0.30;;;0.30;;
20318;SDS011;10317;47.254;11.314;2023-04-01T14:49:17;0.95;;;0.50;;
20318;SDS011;10317;47.254;11.314;2023-04-01T14:51:45;0.50;;;0.50;;
20318;SDS011;10317;47.254;11.314;2023-04-01T14:56:49;0.50;;;0.50;;
20318;SDS011;10317;47.254;11.314;2023-04-01T14:59:39;0.30;;;0.30;;
20318;SDS011;10317;47.254;11.314;2023-04-01T15:08:13;2.55;;;0.50;;
20318;SDS011;10317;47.254;11.314;2023-04-01T15:10:53;0.50;;;0.50;;
20318;SDS011;10317;47.254;11.314;2023-04-01T15:13:44;0.50;;;0.50;;
20318;SDS011;10317;47.254;11.314;2023-04-01T15:16:41;0.32;;;0.32;;
20318;SDS011;10317;47.254;11.314;2023-04-01T15:33:39;0.43;;;0.43;;
20318;SDS011;10317;47.254;11.314;2023-04-01T15:39:52;0.50;;;0.50;;
20318;SDS011;10317;47.254;11.314;2023-04-01T15:42:19;0.50;;;0.50;;
20318;SDS011;10317;47.254;11.314;2023-04-01T15:47:40;0.50;;;0.50;;
20318;SDS011;10317;47.254;11.314;2023-04-01T16:04:57;3.10;;;0.50;;
20318;SDS011;10317;47.254;11.314;2023-04-01T16:10:33;1.45;;;0.60;;
20318;SDS011;10317;47.254;11.314;2023-04-01T16:16:13;0.45;;;0.45;;
20318;SDS011;10317;47.254;11.314;2023-04-01T16:18:49;0.60;;;0.60;;
20318;SDS011;10317;47.254;11.314;2023-04-01T16:35:47;0.88;;;0.88;;
20318;SDS011;10317;47.254;11.314;2023-04-01T16:43:48;1.73;;;0.80;;
20318;SDS011;10317;47.254;11.314;2023-04-01T16:46:30;0.60;;;0.60;;
20318;SDS011;10317;47.254;11.314;2023-04-01T16:54:18;0.60;;;0.60;;
20318;SDS011;10317;47.254;11.314;2023-04-01T16:56:55;0.60;;;0.60;;
20318;SDS011;10317;47.254;11.314;2023-04-01T16:59:55;0.65;;;0.65;;
20318;SDS011;10317;47.254;11.314;2023-04-01T17:02:31;0.60;;;0.60;;
20318;SDS011;10317;47.254;11.314;2023-04-01T17:05:07;0.50;;;0.50;;
20318;SDS011;10317;47.254;11.314;2023-04-01T17:13:52;0.63;;;0.60;;
20318;SDS011;10317;47.254;11.314;2023-04-01T17:25:27;0.82;;;0.60;;
20318;SDS011;10317;47.254;11.314;2023-04-01T17:44:54;0.63;;;0.63;;
20318;SDS011;10317;47.254;11.314;2023-04-01T17:55:45;0.60;;;0.60;;
20318;SDS011;10317;47.254;11.314;2023-04-01T18:09:33;1.50;;;0.70;;
20318;SDS011;10317;47.254;11.314;2023-04-01T18:12:26;0.95;;;0.77;;
20318;SDS011;10317;47.254;11.314;2023-04-01T18:18:10;1.65;;;0.60;;
20318;SDS011;10317;47.254;11.314;2023-04-01T18:20:54;1.17;;;0.80;;
20318;SDS011;10317;47.254;11.314;2023-04-01T18:23:36;0.80;;;0.80;;
20318;SDS011;10317;47.254;11.314;2023-04-01T18:28:58;0.80;;;0.80;;
20318;SDS011;10317;47.254;11.314;2023-04-01T18:31:37;1.05;;;1.00;;
20318;SDS011;10317;47.254;11.314;2023-04-01T18:37:47;1.30;;;0.60;;
20318;SDS011;10317;47.254;11.314;2023-04-01T18:40:12;1.27;;;0.95;;
20318;SDS011;10317;47.254;11.314;2023-04-01T18:43:32;0.82;;;0.82;;
20318;SDS011;10317;47.254;11.314;2023-04-01T18:45:40;1.65;;;0.82;;
20318;SDS011;10317;47.254;11.314;2023-04-01T18:51:26;2.30;;;0.80;;
20318;SDS011;10317;47.254;11.314;2023-04-01T18:54:16;1.25;;;0.65;;
20318;SDS011;10317;47.254;11.314;2023-04-01T18:57:03;2.97;;;1.13;;
20318;SDS011;10317;47.254;11.314;2023-04-01T19:00:02;1.42;;;0.80;;
20318;SDS011;10317;47.254;11.314;2023-04-01T19:06:00;0.70;;;0.70;;
20318;SDS011;10317;47.254;11.314;2023-04-01T19:08:34;0.73;;;0.73;;
20318;SDS011;10317;47.254;11.314;2023-04-01T19:14:47;2.33;;;1.00;;
20318;SDS011;10317;47.254;11.314;2023-04-01T19:27:03;0.70;;;0.70;;
20318;SDS011;10317;47.254;11.314;2023-04-01T19:29:45;1.65;;;0.80;;
20318;SDS011;10317;47.254;11.314;2023-04-01T19:51:42;2.05;;;1.00;;
20318;SDS011;10317;47.254;11.314;2023-04-01T19:54:24;1.08;;;0.90;;
20318;SDS011;10317;47.254;11.314;2023-04-01T20:04:40;3.28;;;1.20;;
20318;SDS011;10317;47.254;11.314;2023-04-01T20:07:24;7.75;;;2.72;;
20318;SDS011;10317;47.254;11.314;2023-04-01T20:18:13;1.13;;;1.13;;
20318;SDS011;10317;47.254;11.314;2023-04-01T20:20:54;5.13;;;1.52;;
20318;SDS011;10317;47.254;11.314;2023-04-01T20:24:06;1.10;;;1.10;;
20318;SDS011;10317;47.254;11.314;2023-04-01T20:26:39;2.67;;;1.20;;
20318;SDS011;10317;47.254;11.314;2023-04-01T20:38:06;2.65;;;1.27;;
20318;SDS011;10317;47.254;11.314;2023-04-01T20:46:07;2.50;;;1.45;;
20318;SDS011;10317;47.254;11.314;2023-04-01T20:51:24;1.20;;;1.20;;
20318;SDS011;10317;47.254;11.314;2023-04-01T20:57:05;1.80;;;1.70;;
20318;SDS011;10317;47.254;11.314;2023-04-01T21:02:16;1.85;;;1.75;;
20318;SDS011;10317;47.254;11.314;2023-04-01T21:23:41;3.45;;;1.33;;
20318;SDS011;10317;47.254;11.314;2023-04-01T21:53:00;3.60;;;1.17;;
20318;SDS011;10317;47.254;11.314;2023-04-01T22:09:39;1.00;;;1.00;;
20318;SDS011;10317;47.254;11.314;2023-04-01T22:12:12;1.00;;;1.00;;
20318;SDS011;10317;47.254;11.314;2023-04-01T22:20:23;1.20;;;1.20;;
20318;SDS011;10317;47.254;11.314;2023-04-01T22:23:07;1.77;;;1.25;;
20318;SDS011;10317;47.254;11.314;2023-04-01T22:26:00;1.00;;;1.00;;
20318;SDS011;10317;47.254;11.314;2023-04-01T22:28:38;1.25;;;1.25;;
20318;SDS011;10317;47.254;11.314;2023-04-01T22:31:16;1.67;;;1.33;;
20318;SDS011;10317;47.254;11.314;2023-04-01T22:33:57;1.13;;;1.10;;
20318;SDS011;10317;47.254;11.314;2023-04-01T22:47:36;1.25;;;1.15;;
20318;SDS011;10317;47.254;11.314;2023-04-01T22:50:21;2.53;;;1.40;;
20318;SDS011;10317;47.254;11.314;2023-04-01T22:53:02;1.77;;;1.00;;
20318;SDS011;10317;47.254;11.314;2023-04-01T22:55:34;3.75;;;1.30;;
20318;SDS011;10317;47.254;11.314;2023-04-01T22:58:04;2.47;;;1.30;;
20318;SDS011;10317;47.254;11.314;2023-04-01T23:03:41;1.10;;;1.10;;
20318;SDS011;10317;47.254;11.314;2023-04-01T23:06:12;2.47;;;1.20;;
20318;SDS011;10317;47.254;11.314;2023-04-01T23:09:02;1.35;;;1.25;;
20318;SDS011;10317;47.254;11.314;2023-04-01T23:16:46;2.55;;;1.50;;
20318;SDS011;10317;47.254;11.314;2023-04-01T23:19:32;1.92;;;1.55;;
20318;SDS011;10317;47.254;11.314;2023-04-01T23:22:41;1.10;;;1.10;;
20318;SDS011;10317;47.254;11.314;2023-04-01T23:27:50;1.58;;;1.48;;
20318;SDS011;10317;47.254;11.314;2023-04-01T23:33:38;3.38;;;1.50;;
20318;SDS011;10317;47.254;11.314;2023-04-01T23:35:58;1.70;;;1.60;;
20318;SDS011;10317;47.254;11.314;2023-04-01T23:38:37;1.95;;;1.40;;
20318;SDS011;10317;47.254;11.314;2023-04-01T23:41:06;4.25;;;1.60;;
20318;SDS011;10317;47.254;11.314;2023-04-01T23:43:43;1.50;;;1.50;;
20318;SDS011;10317;47.254;11.314;2023-04-01T23:46:10;2.67;;;1.58;;
20318;SDS011;10317;47.254;11.314;2023-04-01T23:48:41;2.15;;;1.38;;
20318;SDS011;10317;47.254;11.314;2023-04-01T23:51:12;1.70;;;1.60;;
20318;SDS011;10317;47.254;11.314;2023-04-01T23:53:44;1.50;;;1.40;;
20318;SDS011;10317;47.254;11.314;2023-04-01T23:56:11;2.08;;;1.75;;
